createdAt,value
2022-07-29T00:01:46.939Z,16.88
2022-07-29T00:06:38.986Z,16.83
2022-07-29T00:11:30.635Z,16.78
2022-07-29T00:16:22.360Z,16.75
2022-07-29T00:21:14.221Z,16.70
2022-07-29T00:26:05.920Z,16.69
2022-07-29T00:30:57.601Z,16.64
2022-07-29T00:35:49.246Z,16.61
2022-07-29T00:40:43.302Z,16.59
2022-07-29T00:45:36.374Z,16.54
2022-07-29T00:50:28.218Z,16.51
2022-07-29T00:55:20.268Z,16.43
2022-07-29T01:00:18.462Z,16.42
2022-07-29T01:05:12.862Z,16.37
2022-07-29T01:10:07.516Z,16.35
2022-07-29T01:15:00.022Z,16.31
2022-07-29T01:20:10.663Z,16.26
2022-07-29T01:25:20.996Z,16.23
2022-07-29T01:30:15.575Z,16.19
2022-07-29T01:35:16.688Z,16.15
2022-07-29T01:40:19.951Z,16.11
2022-07-29T01:45:58.805Z,16.06
2022-07-29T01:50:59.695Z,16.03
2022-07-29T01:55:53.985Z,15.99
2022-07-29T02:00:52.438Z,15.94
2022-07-29T02:05:47.480Z,15.91
2022-07-29T02:10:41.113Z,15.86
2022-07-29T02:15:35.382Z,15.81
2022-07-29T02:20:28.756Z,15.76
2022-07-29T02:25:23.450Z,15.74
2022-07-29T02:30:15.686Z,15.68
2022-07-29T02:35:09.806Z,15.65
2022-07-29T02:40:03.209Z,15.60
2022-07-29T02:44:55.169Z,15.57
2022-07-29T02:49:58.905Z,15.53
2022-07-29T02:55:03.608Z,15.51
2022-07-29T02:59:59.709Z,15.46
2022-07-29T03:04:53.610Z,15.41
2022-07-29T03:09:46.302Z,15.36
2022-07-29T03:14:38.645Z,15.32
2022-07-29T03:19:30.407Z,15.29
2022-07-29T03:24:36.557Z,15.26
2022-07-29T03:29:33.193Z,15.24
2022-07-29T03:34:25.740Z,15.21
2022-07-29T03:39:24.219Z,15.16
2022-07-29T03:44:17.865Z,15.10
2022-07-29T03:49:12.372Z,15.07
2022-07-29T03:54:09.966Z,15.01
2022-07-29T03:59:02.637Z,15.00
2022-07-29T04:03:54.651Z,14.97
2022-07-29T04:08:46.450Z,14.95
2022-07-29T04:13:38.065Z,14.92
2022-07-29T04:18:29.701Z,14.88
2022-07-29T04:23:21.342Z,14.86
2022-07-29T04:28:13.077Z,14.82
2022-07-29T04:33:07.095Z,14.78
2022-07-29T04:37:58.714Z,14.76
2022-07-29T04:42:50.373Z,14.72
2022-07-29T04:47:42.038Z,14.67
2022-07-29T04:52:33.990Z,14.65
2022-07-29T04:57:25.565Z,14.60
2022-07-29T05:02:17.292Z,14.59
2022-07-29T05:07:08.908Z,14.58
2022-07-29T05:12:00.563Z,14.58
2022-07-29T05:16:52.217Z,14.55
2022-07-29T05:21:45.494Z,14.57
2022-07-29T05:26:37.166Z,14.57
2022-07-29T05:31:28.806Z,14.57
2022-07-29T05:36:20.526Z,14.60
2022-07-29T05:41:12.637Z,14.58
2022-07-29T05:46:04.342Z,14.59
2022-07-29T05:50:56.164Z,14.56
2022-07-29T05:55:49.152Z,14.55
2022-07-29T06:00:41.071Z,14.54
2022-07-29T06:05:32.682Z,14.57
2022-07-29T06:10:26.108Z,14.57
2022-07-29T06:15:18.923Z,14.58
2022-07-29T06:20:12.399Z,14.59
2022-07-29T06:25:04.700Z,14.61
2022-07-29T06:29:57.489Z,14.64
2022-07-29T06:34:49.373Z,14.67
2022-07-29T06:39:41.667Z,14.71
2022-07-29T06:44:35.025Z,14.72
2022-07-29T06:49:27.383Z,14.73
2022-07-29T06:54:19.413Z,14.77
2022-07-29T06:59:12.900Z,14.81
2022-07-29T07:04:04.682Z,14.85
2022-07-29T07:08:56.365Z,14.90
2022-07-29T07:13:48.091Z,14.93
2022-07-29T07:18:39.741Z,14.98
2022-07-29T07:23:31.708Z,14.98
2022-07-29T07:28:24.508Z,15.00
2022-07-29T07:33:16.859Z,15.06
2022-07-29T07:38:08.634Z,15.15
2022-07-29T07:43:00.388Z,15.19
2022-07-29T07:47:52.041Z,15.26
2022-07-29T07:52:50.476Z,15.33
2022-07-29T07:57:42.239Z,15.39
2022-07-29T08:02:33.872Z,15.47
2022-07-29T08:07:25.512Z,15.52
2022-07-29T08:12:17.261Z,15.61
2022-07-29T08:17:08.964Z,15.71
2022-07-29T08:22:00.773Z,15.81
2022-07-29T08:26:52.418Z,15.95
2022-07-29T08:31:44.466Z,16.11
2022-07-29T08:36:36.612Z,16.33
2022-07-29T08:41:28.362Z,16.54
2022-07-29T08:46:22.529Z,16.73
2022-07-29T08:51:16.347Z,16.89
2022-07-29T08:56:08.174Z,17.14
2022-07-29T09:01:02.597Z,17.50
2022-07-29T09:05:55.459Z,17.84
2022-07-29T09:10:47.899Z,18.00
2022-07-29T09:15:39.630Z,18.16
2022-07-29T09:20:51.232Z,18.30
2022-07-29T09:25:42.945Z,18.40
2022-07-29T09:30:34.845Z,18.56
2022-07-29T09:35:27.219Z,18.70
2022-07-29T09:40:25.250Z,18.82
2022-07-29T09:45:34.901Z,18.96
2022-07-29T09:50:41.205Z,19.05
2022-07-29T09:55:33.502Z,19.12
2022-07-29T10:00:26.510Z,19.20
2022-07-29T10:05:26.158Z,19.40
2022-07-29T10:10:23.467Z,19.59
2022-07-29T10:15:16.598Z,19.73
2022-07-29T10:20:12.537Z,19.76
2022-07-29T10:25:09.697Z,19.85
2022-07-29T10:30:02.842Z,19.87
2022-07-29T10:35:19.753Z,19.95
2022-07-29T10:41:08.679Z,19.95
2022-07-29T10:46:01.868Z,20.07
2022-07-29T10:50:57.329Z,20.26
2022-07-29T10:55:51.419Z,20.44
2022-07-29T11:00:48.075Z,20.65
2022-07-29T11:05:55.857Z,20.83
2022-07-29T11:10:49.218Z,21.00
2022-07-29T11:15:55.229Z,21.14
2022-07-29T11:20:54.882Z,21.33
2022-07-29T11:26:07.751Z,21.49
2022-07-29T11:31:00.665Z,21.54
2022-07-29T11:36:16.827Z,21.62
2022-07-29T11:41:18.956Z,21.60
2022-07-29T11:46:12.900Z,21.59
2022-07-29T11:51:12.071Z,21.55
2022-07-29T11:56:05.147Z,21.58
2022-07-29T12:00:58.634Z,21.61
2022-07-29T12:05:57.409Z,21.66
2022-07-29T12:10:53.050Z,21.66
2022-07-29T12:16:00.036Z,21.73
2022-07-29T12:21:05.597Z,21.79
2022-07-29T12:25:59.534Z,21.95
2022-07-29T12:30:51.845Z,22.11
2022-07-29T12:35:58.082Z,22.24
2022-07-29T12:40:56.229Z,22.34
2022-07-29T12:45:51.022Z,22.49
2022-07-29T12:51:00.207Z,22.68
2022-07-29T12:55:53.425Z,22.78
2022-07-29T13:00:45.150Z,22.87
2022-07-29T13:05:48.835Z,22.95
2022-07-29T13:10:42.082Z,23.10
2022-07-29T13:15:35.224Z,23.30
2022-07-29T13:20:30.663Z,23.51
2022-07-29T13:25:28.124Z,23.80
2022-07-29T13:30:19.749Z,24.02
2022-07-29T13:35:11.383Z,24.08
2022-07-29T13:40:04.444Z,24.17
2022-07-29T13:44:56.336Z,24.18
2022-07-29T13:49:48.378Z,24.16
2022-07-29T13:54:42.625Z,24.19
2022-07-29T13:59:34.740Z,24.26
2022-07-29T14:04:26.796Z,24.33
2022-07-29T14:09:18.887Z,24.39
2022-07-29T14:14:11.622Z,24.31
2022-07-29T14:19:03.512Z,24.29
2022-07-29T14:23:55.682Z,24.33
2022-07-29T14:28:48.081Z,24.26
2022-07-29T14:33:39.750Z,24.26
2022-07-29T14:38:31.375Z,24.33
2022-07-29T14:43:23.034Z,24.38
2022-07-29T14:48:14.651Z,24.43
2022-07-29T14:53:06.449Z,24.44
2022-07-29T14:58:07.761Z,24.45
2022-07-29T15:03:02.751Z,24.44
2022-07-29T15:07:54.750Z,24.44
2022-07-29T15:12:46.390Z,24.45
2022-07-29T15:17:38.134Z,24.36
2022-07-29T15:22:29.756Z,24.35
2022-07-29T15:27:21.434Z,24.35
2022-07-29T15:32:13.278Z,24.25
2022-07-29T15:37:06.275Z,24.13
2022-07-29T15:42:00.569Z,24.02
2022-07-29T15:47:04.673Z,23.92
2022-07-29T15:51:59.872Z,23.74
2022-07-29T15:56:51.776Z,23.71
2022-07-29T16:01:43.406Z,23.64
2022-07-29T16:06:35.038Z,23.45
2022-07-29T16:11:26.785Z,23.26
2022-07-29T16:16:19.126Z,23.19
2022-07-29T16:21:11.586Z,23.22
2022-07-29T16:26:03.373Z,23.18
2022-07-29T16:30:55.139Z,23.10
2022-07-29T16:35:46.873Z,23.05
2022-07-29T16:40:38.937Z,23.04
2022-07-29T16:45:32.684Z,22.98
2022-07-29T16:50:39.703Z,22.89
2022-07-29T16:55:31.314Z,22.85
2022-07-29T17:00:23.680Z,22.91
2022-07-29T17:05:15.942Z,22.85
2022-07-29T17:10:09.241Z,22.81
2022-07-29T17:15:00.918Z,22.79
2022-07-29T17:19:52.586Z,22.72
2022-07-29T17:24:45.521Z,22.65
2022-07-29T17:29:38.923Z,22.58
2022-07-29T17:34:31.023Z,22.55
2022-07-29T17:39:22.822Z,22.49
2022-07-29T17:44:14.633Z,22.42
2022-07-29T17:49:07.342Z,22.32
2022-07-29T17:53:59.496Z,22.20
2022-07-29T17:58:52.181Z,22.13
2022-07-29T18:03:44.385Z,22.09
2022-07-29T18:08:36.968Z,22.02
2022-07-29T18:13:28.639Z,21.97
2022-07-29T18:18:20.411Z,21.99
2022-07-29T18:23:12.155Z,22.02
2022-07-29T18:28:04.293Z,22.00
2022-07-29T18:33:19.876Z,21.96
2022-07-29T18:38:07.808Z,21.91
2022-07-29T18:42:59.482Z,21.86
2022-07-29T18:47:51.831Z,21.80
2022-07-29T18:52:46.400Z,21.70
2022-07-29T18:57:55.077Z,21.60
2022-07-29T19:02:49.021Z,21.50
2022-07-29T19:07:40.863Z,21.42
2022-07-29T19:12:32.554Z,21.33
2022-07-29T19:17:24.168Z,21.24
2022-07-29T19:22:15.863Z,21.19
2022-07-29T19:27:07.822Z,21.09
2022-07-29T19:32:00.633Z,21.02
2022-07-29T19:36:53.109Z,20.95
2022-07-29T19:41:44.973Z,20.83
2022-07-29T19:46:37.250Z,20.73
2022-07-29T19:51:28.964Z,20.61
2022-07-29T19:56:20.756Z,20.48
2022-07-29T20:01:12.762Z,20.37
2022-07-29T20:06:04.477Z,20.29
2022-07-29T20:10:56.137Z,20.20
2022-07-29T20:15:48.182Z,20.14
2022-07-29T20:20:39.885Z,20.12
2022-07-29T20:25:31.570Z,20.07
2022-07-29T20:30:23.517Z,20.02
2022-07-29T20:35:15.637Z,19.96
2022-07-29T20:40:08.704Z,19.90
2022-07-29T20:45:08.577Z,19.85
2022-07-29T20:50:00.759Z,19.78
2022-07-29T20:54:52.616Z,19.74
2022-07-29T20:59:45.889Z,19.68
2022-07-29T21:04:37.678Z,19.60
2022-07-29T21:09:29.508Z,19.52
2022-07-29T21:14:41.425Z,19.46
2022-07-29T21:19:33.969Z,19.41
2022-07-29T21:24:25.655Z,19.36
2022-07-29T21:29:18.514Z,19.32
2022-07-29T21:34:11.053Z,19.30
2022-07-29T21:39:07.030Z,19.26
2022-07-29T21:43:59.551Z,19.24
2022-07-29T21:48:53.042Z,19.24
2022-07-29T21:53:44.750Z,19.20
2022-07-29T21:58:37.519Z,19.19
2022-07-29T22:03:29.184Z,19.15
2022-07-29T22:08:20.974Z,19.09
2022-07-29T22:13:12.800Z,19.06
2022-07-29T22:18:04.555Z,19.04
2022-07-29T22:22:56.262Z,18.99
2022-07-29T22:27:48.062Z,18.96
2022-07-29T22:32:40.279Z,18.91
2022-07-29T22:37:31.917Z,18.85
2022-07-29T22:42:23.807Z,18.80
2022-07-29T22:47:15.505Z,18.77
2022-07-29T22:52:07.228Z,18.73
2022-07-29T22:56:59.059Z,18.68
2022-07-29T23:01:50.974Z,18.63
2022-07-29T23:06:42.713Z,18.55
2022-07-29T23:11:34.379Z,18.51
2022-07-29T23:16:27.053Z,18.47
2022-07-29T23:21:20.855Z,18.49
2022-07-29T23:26:16.696Z,18.48
2022-07-29T23:31:08.441Z,18.48
2022-07-29T23:36:00.149Z,18.48
2022-07-29T23:40:51.922Z,18.44
2022-07-29T23:45:48.462Z,18.37
2022-07-29T23:50:40.479Z,18.34
2022-07-29T23:55:37.378Z,18.32
